Time;durP1;ratioP1;P1;durP2;ratioP2;P2;SDS_P1;SDS_P2;PMS_P1;PMS_P2;Temp;Humidity;BMP_temperature;BMP_pressure;BME280_temperature;BME280_humidity;BME280_pressure;Samples;Min_cycle;Max_cycle;Signal;HPM_P1;HPM_P2
2021/01/03 00:00:24;;;;;;;12.13;7.93;;;0.90;98.40;;;;;;5092673;28;20033;-72
2021/01/03 00:02:50;;;;;;;14.23;8.48;;;0.80;98.90;;;;;;5093306;28;20466;-72
2021/01/03 00:05:19;;;;;;;12.95;8.70;;;0.80;98.90;;;;;;5092380;28;20594;-72
2021/01/03 00:07:45;;;;;;;16.23;8.18;;;0.80;98.90;;;;;;5093387;28;20028;-73
2021/01/03 00:10:11;;;;;;;16.13;8.10;;;0.80;99.10;;;;;;5092333;28;20024;-73
2021/01/03 00:12:37;;;;;;;12.57;8.25;;;0.80;99.10;;;;;;5093064;28;20475;-71
2021/01/03 00:15:07;;;;;;;10.70;7.65;;;0.80;99.20;;;;;;5092754;28;20028;-74
2021/01/03 00:17:32;;;;;;;13.83;8.80;;;0.70;99.20;;;;;;5074958;28;20073;-72
2021/01/03 00:19:58;;;;;;;13.23;7.25;;;0.80;98.90;;;;;;5074460;28;20686;-69
2021/01/03 00:22:23;;;;;;;15.02;8.43;;;0.80;98.30;;;;;;5092694;28;20028;-73
2021/01/03 00:24:49;;;;;;;13.23;7.97;;;0.80;98.70;;;;;;5093116;28;20032;-73
2021/01/03 00:27:15;;;;;;;13.23;8.30;;;0.80;97.70;;;;;;5074136;28;20118;-72
2021/01/03 00:29:41;;;;;;;14.65;7.68;;;0.80;98.30;;;;;;5092682;28;20070;-72
2021/01/03 00:32:07;;;;;;;12.30;7.70;;;0.80;98.60;;;;;;5091685;28;20024;-69
2021/01/03 00:34:33;;;;;;;13.80;7.78;;;0.90;97.60;;;;;;5092887;28;20074;-72
2021/01/03 00:36:58;;;;;;;14.00;7.78;;;0.90;97.60;;;;;;5092350;28;20063;-69
2021/01/03 00:39:24;;;;;;;11.88;8.10;;;0.80;98.00;;;;;;5092592;28;20055;-72
2021/01/03 00:41:50;;;;;;;14.82;8.65;;;0.80;97.90;;;;;;5092790;28;20032;-73
2021/01/03 00:44:17;;;;;;;12.75;8.82;;;0.80;97.90;;;;;;5091611;28;20077;-72
2021/01/03 00:46:42;;;;;;;13.15;7.40;;;0.80;98.40;;;;;;5092275;28;20103;-73
2021/01/03 00:49:08;;;;;;;12.57;7.80;;;0.70;98.70;;;;;;5091711;28;20103;-73
2021/01/03 00:51:34;;;;;;;13.23;7.82;;;0.70;98.70;;;;;;5074368;28;20028;-74
2021/01/03 00:54:00;;;;;;;12.27;7.30;;;0.80;98.00;;;;;;5092129;28;20084;-69
2021/01/03 00:56:26;;;;;;;13.82;7.82;;;0.90;97.00;;;;;;5091747;28;20052;-74
2021/01/03 00:58:52;;;;;;;12.90;7.35;;;0.80;97.30;;;;;;5092414;28;20762;-73
2021/01/03 01:01:19;;;;;;;12.00;7.32;;;0.80;97.80;;;;;;5092448;28;20086;-74
2021/01/03 01:03:44;;;;;;;13.20;7.30;;;0.90;96.50;;;;;;5092946;28;20127;-72
2021/01/03 01:06:10;;;;;;;12.57;7.32;;;0.80;96.50;;;;;;5073317;28;20115;-69
2021/01/03 01:08:36;;;;;;;12.10;7.47;;;0.90;96.60;;;;;;5074118;28;20550;-72
2021/01/03 01:11:05;;;;;;;11.95;8.13;;;0.90;95.90;;;;;;5091500;28;20358;-70
2021/01/03 01:13:31;;;;;;;11.80;7.50;;;0.80;97.00;;;;;;5091584;28;20024;-70
2021/01/03 01:15:57;;;;;;;11.73;7.90;;;0.80;97.50;;;;;;5057242;28;20024;-74
2021/01/03 01:18:23;;;;;;;11.88;7.55;;;0.70;98.20;;;;;;5090339;28;20067;-73
2021/01/03 01:20:48;;;;;;;12.90;7.97;;;0.70;98.70;;;;;;5092096;28;20043;-74
2021/01/03 01:23:14;;;;;;;12.40;7.22;;;0.70;97.90;;;;;;5091328;28;20373;-74
2021/01/03 01:25:40;;;;;;;12.00;7.45;;;0.80;97.20;;;;;;5091829;28;20036;-74
2021/01/03 01:28:05;;;;;;;12.40;7.85;;;0.80;97.10;;;;;;5091463;28;20103;-74
2021/01/03 01:30:33;;;;;;;10.98;8.02;;;0.80;97.20;;;;;;5091602;28;20026;-73
2021/01/03 01:33:00;;;;;;;14.75;8.10;;;0.70;97.80;;;;;;5082883;28;20094;-69
2021/01/03 01:35:30;;;;;;;15.38;7.55;;;0.70;97.10;;;;;;5080317;28;20053;-74
2021/01/03 01:37:56;;;;;;;13.32;8.15;;;0.80;97.30;;;;;;5081895;28;20031;-74
2021/01/03 01:40:26;;;;;;;12.60;7.80;;;0.70;97.60;;;;;;5077958;28;20032;-74
2021/01/03 01:42:53;;;;;;;13.70;8.45;;;0.70;97.70;;;;;;5079771;28;20427;-74
2021/01/03 01:45:21;;;;;;;11.88;7.75;;;0.80;97.30;;;;;;5079741;28;20027;-74
2021/01/03 01:47:50;;;;;;;12.93;8.23;;;0.80;96.80;;;;;;5082707;28;20024;-72
2021/01/03 01:50:23;;;;;;;12.57;7.93;;;0.80;96.50;;;;;;5079696;28;20035;-74
2021/01/03 01:52:56;;;;;;;13.85;8.45;;;0.80;97.00;;;;;;5085236;28;20027;-72
2021/01/03 01:55:26;;;;;;;13.10;8.25;;;0.70;98.50;;;;;;5079139;28;20237;-73
2021/01/03 01:58:05;;;;;;;12.13;8.18;;;0.70;97.70;;;;;;5077425;28;20140;-72
2021/01/03 02:00:34;;;;;;;18.55;9.82;;;0.70;98.50;;;;;;5080532;28;20358;-73
2021/01/03 02:03:08;;;;;;;17.90;9.40;;;0.70;99.10;;;;;;5078720;28;20055;-69
2021/01/03 02:05:45;;;;;;;16.83;9.85;;;0.60;99.90;;;;;;5080448;28;20027;-72
2021/01/03 02:08:23;;;;;;;18.73;9.88;;;0.70;99.90;;;;;;5079830;28;20043;-74
2021/01/03 02:10:49;;;;;;;15.23;9.95;;;0.70;99.90;;;;;;5078727;28;20091;-74
2021/01/03 02:13:21;;;;;;;15.05;9.38;;;0.70;99.90;;;;;;5070846;28;20078;-75
2021/01/03 02:15:47;;;;;;;16.92;10.38;;;0.60;99.90;;;;;;5071057;28;20028;-75
2021/01/03 02:18:14;;;;;;;15.95;10.30;;;0.60;99.90;;;;;;5084782;28;20066;-74
2021/01/03 02:21:08;;;;;;;16.23;10.40;;;0.50;99.90;;;;;;5103508;28;21029;-75
2021/01/03 02:24:01;;;;;;;16.25;10.27;;;0.50;99.90;;;;;;5080790;28;20028;-74
2021/01/03 02:26:31;;;;;;;18.75;10.98;;;0.50;99.90;;;;;;5094816;28;20038;-75
2021/01/03 02:28:57;;;;;;;19.58;11.93;;;0.40;99.90;;;;;;5073745;28;20477;-75
2021/01/03 02:31:34;;;;;;;22.45;12.40;;;0.40;99.90;;;;;;5070889;28;20033;-75
2021/01/03 02:34:02;;;;;;;21.33;13.40;;;0.30;99.90;;;;;;5071060;28;20060;-69
2021/01/03 02:36:31;;;;;;;19.25;12.30;;;0.30;99.90;;;;;;5070673;28;20025;-75
2021/01/03 02:39:19;;;;;;;20.55;12.00;;;0.20;99.90;;;;;;5069923;28;20043;-71
2021/01/03 02:41:45;;;;;;;20.73;13.38;;;0.10;99.90;;;;;;5071136;28;20032;-75
2021/01/03 02:44:10;;;;;;;22.30;13.90;;;0.10;99.90;;;;;;5069027;28;20135;-72
2021/01/03 02:46:37;;;;;;;24.85;15.15;;;0.00;99.90;;;;;;5070813;28;20025;-74
2021/01/03 02:49:04;;;;;;;24.33;14.68;;;0.00;99.90;;;;;;5070471;28;20016;-69
2021/01/03 02:51:36;;;;;;;26.52;15.70;;;0.00;99.90;;;;;;5071007;28;20025;-75
2021/01/03 02:54:03;;;;;;;24.33;15.20;;;-0.10;99.90;;;;;;5073508;28;20062;-70
2021/01/03 02:56:29;;;;;;;26.25;15.65;;;-0.20;99.90;;;;;;5094239;28;20032;-76
2021/01/03 02:58:54;;;;;;;26.15;15.95;;;-0.20;99.90;;;;;;5094936;28;20028;-74
2021/01/03 03:01:20;;;;;;;29.38;17.30;;;-0.20;99.90;;;;;;5093820;28;20059;-75
2021/01/03 03:03:46;;;;;;;31.05;17.15;;;-0.20;99.90;;;;;;5094456;28;20445;-76
2021/01/03 03:06:11;;;;;;;29.33;17.63;;;-0.30;99.90;;;;;;5093681;28;20066;-74
2021/01/03 03:08:37;;;;;;;28.88;16.77;;;-0.30;99.90;;;;;;5057170;28;20066;-76
2021/01/03 03:11:03;;;;;;;28.92;18.02;;;-0.30;99.90;;;;;;5074117;28;20029;-71
2021/01/03 03:13:28;;;;;;;28.52;17.45;;;-0.30;99.90;;;;;;5073572;28;20027;-73
2021/01/03 03:15:54;;;;;;;28.92;17.98;;;-0.40;99.90;;;;;;5074115;28;20032;-72
2021/01/03 03:18:19;;;;;;;28.15;16.90;;;-0.30;99.90;;;;;;5073242;28;20032;-72
2021/01/03 03:20:46;;;;;;;34.85;18.65;;;-0.30;99.90;;;;;;5074196;28;20025;-72
2021/01/03 03:23:12;;;;;;;34.42;18.67;;;-0.40;99.90;;;;;;5072881;28;20028;-73
2021/01/03 03:25:38;;;;;;;31.52;18.38;;;-0.50;99.90;;;;;;5074071;28;20029;-73
2021/01/03 03:28:03;;;;;;;33.55;18.80;;;-0.40;99.90;;;;;;5073331;28;20036;-71
2021/01/03 03:30:29;;;;;;;32.70;18.13;;;-0.40;99.90;;;;;;5073898;28;20029;-73
2021/01/03 03:32:55;;;;;;;28.38;17.73;;;-0.40;99.90;;;;;;5073211;28;20411;-77
2021/01/03 03:35:24;;;;;;;32.83;18.85;;;-0.40;99.90;;;;;;5072953;28;20032;-76
2021/01/03 03:37:50;;;;;;;31.65;17.90;;;-0.40;99.90;;;;;;5073813;28;20054;-76
2021/01/03 03:40:16;;;;;;;34.05;18.00;;;-0.50;99.90;;;;;;5073089;28;20135;-69
2021/01/03 03:42:41;;;;;;;32.55;18.52;;;-0.50;99.90;;;;;;5055461;28;20374;-77
2021/01/03 03:45:08;;;;;;;31.35;19.13;;;-0.40;99.90;;;;;;5072635;28;20074;-77
2021/01/03 03:47:34;;;;;;;32.65;18.35;;;-0.50;99.90;;;;;;5073617;28;20035;-77
2021/01/03 03:50:00;;;;;;;27.90;17.70;;;-0.40;99.90;;;;;;5073439;28;20381;-76
2021/01/03 03:52:25;;;;;;;30.80;18.55;;;-0.40;99.90;;;;;;5054849;28;20105;-73
2021/01/03 03:54:51;;;;;;;31.88;18.75;;;-0.50;99.90;;;;;;5073119;28;20028;-77
2021/01/03 03:57:17;;;;;;;31.92;19.13;;;-0.50;99.90;;;;;;5072356;28;20525;-75
2021/01/03 03:59:43;;;;;;;31.30;19.02;;;-0.50;99.90;;;;;;5073157;28;20462;-78
2021/01/03 04:02:08;;;;;;;28.90;17.40;;;-0.40;99.90;;;;;;5072188;28;20025;-76
2021/01/03 04:04:36;;;;;;;31.92;17.90;;;-0.40;99.90;;;;;;5072971;28;20435;-70
2021/01/03 04:07:03;;;;;;;31.38;18.02;;;-0.40;99.90;;;;;;5078692;28;20058;-71
2021/01/03 04:09:28;;;;;;;33.55;19.75;;;-0.40;99.90;;;;;;5092726;28;20027;-76
2021/01/03 04:11:54;;;;;;;32.88;20.02;;;-0.50;99.90;;;;;;5093192;28;20028;-73
2021/01/03 04:14:23;;;;;;;35.33;20.80;;;-0.50;99.90;;;;;;5092564;28;20020;-77
2021/01/03 04:17:00;;;;;;;33.90;19.33;;;-0.50;99.90;;;;;;5092698;28;20413;-75
2021/01/03 04:19:27;;;;;;;35.58;20.55;;;-0.50;99.90;;;;;;5072185;28;20035;-74
2021/01/03 04:22:02;;;;;;;34.10;19.83;;;-0.50;99.90;;;;;;5055528;28;20461;-74
2021/01/03 04:24:29;;;;;;;34.80;19.98;;;-0.50;99.90;;;;;;5072395;28;20264;-78
2021/01/03 04:27:03;;;;;;;34.67;20.15;;;-0.40;99.90;;;;;;5073227;28;20040;-76
2021/01/03 04:29:29;;;;;;;36.22;20.67;;;-0.50;99.90;;;;;;5072260;28;20027;-78
2021/01/03 04:31:56;;;;;;;32.67;19.80;;;-0.50;99.90;;;;;;5073528;28;20460;-78
2021/01/03 04:34:22;;;;;;;36.75;20.50;;;-0.50;99.90;;;;;;5054551;28;20063;-77
2021/01/03 04:36:49;;;;;;;36.42;21.50;;;-0.50;99.90;;;;;;5058960;28;20035;-77
2021/01/03 04:39:15;;;;;;;33.85;20.15;;;-0.50;99.90;;;;;;5075307;28;20029;-77
2021/01/03 04:41:41;;;;;;;32.42;20.30;;;-0.50;99.90;;;;;;5072918;28;20025;-70
2021/01/03 04:44:18;;;;;;;34.65;20.52;;;-0.50;99.90;;;;;;5072383;28;20173;-70
2021/01/03 04:46:43;;;;;;;37.45;21.02;;;-0.50;99.90;;;;;;5072320;28;20115;-77
2021/01/03 04:49:29;;;;;;;38.50;21.33;;;-0.50;99.90;;;;;;5070884;28;20154;-74
2021/01/03 04:52:28;;;;;;;37.03;20.90;;;-0.50;99.90;;;;;;5072336;28;20024;-70
2021/01/03 04:55:05;;;;;;;36.90;21.05;;;-0.60;99.90;;;;;;5072350;28;20025;-78
2021/01/03 04:57:59;;;;;;;40.17;21.83;;;-0.50;99.90;;;;;;5091745;28;20052;-77
2021/01/03 05:00:32;;;;;;;36.13;20.35;;;-0.50;99.90;;;;;;5073818;28;20082;-77
2021/01/03 05:03:36;;;;;;;34.03;20.05;;;-0.50;99.90;;;;;;5080581;28;20032;-75
2021/01/03 05:06:10;;;;;;;34.65;20.25;;;-0.50;99.90;;;;;;5088483;28;20028;-69
2021/01/03 05:08:44;;;;;;;33.10;19.98;;;-0.50;99.90;;;;;;5097748;28;20035;-77
2021/01/03 05:11:17;;;;;;;32.70;19.80;;;-0.50;99.90;;;;;;5096153;28;20031;-74
2021/01/03 05:14:04;;;;;;;35.10;20.67;;;-0.50;99.90;;;;;;5093848;28;20039;-78
2021/01/03 05:16:30;;;;;;;31.50;19.65;;;-0.50;99.90;;;;;;5091234;28;20038;-77
2021/01/03 05:18:55;;;;;;;32.13;19.90;;;-0.50;99.90;;;;;;5092278;28;20107;-76
2021/01/03 05:21:21;;;;;;;32.58;20.17;;;-0.40;99.90;;;;;;5091516;28;20031;-77
2021/01/03 05:24:02;;;;;;;32.90;20.13;;;-0.40;99.90;;;;;;5073989;28;20120;-72
2021/01/03 05:26:34;;;;;;;32.67;19.00;;;-0.50;99.90;;;;;;5091076;28;20036;-77
2021/01/03 05:29:00;;;;;;;38.17;20.67;;;-0.50;99.90;;;;;;5092250;28;20032;-77
2021/01/03 05:31:28;;;;;;;32.65;18.95;;;-0.50;99.90;;;;;;5091397;28;20020;-77
2021/01/03 05:33:55;;;;;;;32.35;18.73;;;-0.50;99.90;;;;;;5074581;28;20536;-76
2021/01/03 05:36:34;;;;;;;33.97;20.00;;;-0.50;99.90;;;;;;5091238;28;20039;-77
2021/01/03 05:39:03;;;;;;;35.78;20.17;;;-0.40;99.90;;;;;;5093087;28;20039;-77
2021/01/03 05:42:01;;;;;;;31.40;19.17;;;-0.40;99.90;;;;;;5092594;28;20116;-75
2021/01/03 05:45:13;;;;;;;34.75;20.63;;;-0.50;99.90;;;;;;5094539;28;20074;-78
2021/01/03 05:48:00;;;;;;;31.10;19.25;;;-0.40;99.90;;;;;;5062920;28;20105;-79
2021/01/03 05:50:36;;;;;;;33.40;19.42;;;-0.30;99.90;;;;;;5090587;28;20039;-79
2021/01/03 05:53:08;;;;;;;33.35;19.83;;;-0.30;99.90;;;;;;5092034;28;20101;-78
2021/01/03 05:55:36;;;;;;;35.53;19.95;;;-0.30;99.90;;;;;;5073083;28;20024;-79
2021/01/03 05:58:11;;;;;;;31.00;19.40;;;-0.40;99.90;;;;;;5091609;28;20052;-78
2021/01/03 06:00:37;;;;;;;36.67;19.20;;;-0.40;99.90;;;;;;5091555;28;20453;-75
2021/01/03 06:03:27;;;;;;;36.40;20.63;;;-0.40;99.90;;;;;;5091568;28;20054;-79
2021/01/03 06:06:10;;;;;;;32.03;19.08;;;-0.40;99.90;;;;;;5091462;28;20020;-70
2021/01/03 06:08:39;;;;;;;33.15;19.23;;;-0.50;99.90;;;;;;5073541;28;20058;-79
2021/01/03 06:11:20;;;;;;;30.30;18.77;;;-0.50;99.90;;;;;;5091307;28;20100;-79
2021/01/03 06:13:51;;;;;;;30.95;18.92;;;-0.40;99.90;;;;;;5091663;28;20028;-73
2021/01/03 06:16:24;;;;;;;31.40;18.98;;;-0.30;99.90;;;;;;5090653;28;20033;-79
2021/01/03 06:19:03;;;;;;;27.77;17.80;;;-0.40;99.90;;;;;;5091285;28;20467;-79
2021/01/03 06:21:39;;;;;;;33.28;19.80;;;-0.40;99.90;;;;;;5091432;28;20217;-80
2021/01/03 06:24:28;;;;;;;34.83;19.50;;;-0.40;99.90;;;;;;5093535;28;20373;-79
2021/01/03 06:27:03;;;;;;;31.35;19.38;;;-0.40;99.90;;;;;;5092442;28;20427;-79
2021/01/03 06:29:41;;;;;;;33.08;19.33;;;-0.40;99.90;;;;;;5094832;28;20028;-80
2021/01/03 06:32:29;;;;;;;32.20;18.88;;;-0.40;99.90;;;;;;5095669;28;20032;-74
2021/01/03 06:35:29;;;;;;;33.30;20.13;;;-0.40;99.90;;;;;;5096241;28;20204;-79
2021/01/03 06:38:37;;;;;;;32.35;18.85;;;-0.30;99.90;;;;;;5080284;28;20050;-70
2021/01/03 06:41:14;;;;;;;30.38;18.52;;;-0.40;99.90;;;;;;5026319;28;20546;-79
2021/01/03 06:44:11;;;;;;;31.05;18.08;;;-0.30;99.90;;;;;;5099945;28;20100;-78
2021/01/03 06:47:29;;;;;;;28.83;17.23;;;-0.30;99.90;;;;;;5099235;28;20032;-79
2021/01/03 06:50:44;;;;;;;34.58;20.05;;;-0.30;99.90;;;;;;5099282;28;20111;-78
2021/01/03 06:53:28;;;;;;;30.02;18.35;;;-0.40;99.90;;;;;;5078551;28;20165;-71
2021/01/03 06:56:12;;;;;;;29.33;18.17;;;-0.40;99.90;;;;;;5094952;28;20024;-79
2021/01/03 06:58:58;;;;;;;32.67;19.50;;;-0.50;99.90;;;;;;5095189;28;20488;-79
2021/01/03 07:01:28;;;;;;;34.38;20.10;;;-0.50;99.90;;;;;;5095599;28;20047;-71
2021/01/03 07:03:56;;;;;;;30.25;19.38;;;-0.50;99.90;;;;;;5096361;28;20024;-78
2021/01/03 07:06:31;;;;;;;32.33;19.33;;;-0.50;99.90;;;;;;5094373;28;20056;-78
2021/01/03 07:08:57;;;;;;;33.33;19.63;;;-0.50;99.90;;;;;;5095369;28;20028;-80
2021/01/03 07:11:40;;;;;;;34.17;19.58;;;-0.50;99.90;;;;;;5094917;28;20016;-79
2021/01/03 07:14:21;;;;;;;32.40;18.52;;;-0.50;99.90;;;;;;5094585;28;20032;-78
2021/01/03 07:16:57;;;;;;;36.78;19.80;;;-0.50;99.90;;;;;;5094386;28;20036;-79
2021/01/03 07:19:31;;;;;;;31.17;18.48;;;-0.50;99.90;;;;;;5093964;28;20403;-75
2021/01/03 07:22:02;;;;;;;31.23;18.20;;;-0.50;99.90;;;;;;5094071;28;20085;-80
2021/01/03 07:24:33;;;;;;;34.50;19.48;;;-0.50;99.90;;;;;;5093749;28;20024;-79
2021/01/03 07:27:17;;;;;;;31.15;18.95;;;-0.50;99.90;;;;;;5094277;28;20043;-76
2021/01/03 07:29:50;;;;;;;32.50;19.60;;;-0.50;99.90;;;;;;5076058;28;20036;-78
2021/01/03 07:32:18;;;;;;;29.85;17.90;;;-0.40;99.90;;;;;;5093304;28;20393;-79
2021/01/03 07:34:51;;;;;;;30.70;18.42;;;-0.40;99.90;;;;;;5094521;28;20020;-79
2021/01/03 07:37:25;;;;;;;31.10;19.25;;;-0.50;99.90;;;;;;5093108;28;20028;-79
2021/01/03 07:40:04;;;;;;;32.83;19.10;;;-0.50;99.90;;;;;;5093079;28;20050;-74
2021/01/03 07:42:56;;;;;;;32.17;18.80;;;-0.50;99.90;;;;;;5088046;28;20036;-69
2021/01/03 07:45:34;;;;;;;31.58;18.23;;;-0.40;99.90;;;;;;5073854;28;20111;-73
2021/01/03 07:48:01;;;;;;;28.35;18.00;;;-0.40;99.90;;;;;;5079510;28;20025;-72
2021/01/03 07:50:39;;;;;;;30.50;17.80;;;-0.40;99.90;;;;;;5094599;28;20021;-70
2021/01/03 07:53:29;;;;;;;32.15;19.33;;;-0.40;99.90;;;;;;5077654;28;20063;-73
2021/01/03 07:56:14;;;;;;;28.23;16.92;;;-0.40;99.90;;;;;;5073175;28;20036;-71
2021/01/03 07:58:39;;;;;;;30.45;17.75;;;-0.40;99.90;;;;;;5089198;28;20067;-74
2021/01/03 08:01:05;;;;;;;32.15;18.75;;;-0.30;99.90;;;;;;5094588;28;20070;-73
2021/01/03 08:03:31;;;;;;;30.50;18.73;;;-0.30;99.90;;;;;;5093111;28;20112;-72
2021/01/03 08:06:08;;;;;;;32.33;19.35;;;-0.30;99.90;;;;;;5093568;28;20031;-72
2021/01/03 08:08:34;;;;;;;31.25;18.52;;;-0.30;99.90;;;;;;5073649;28;20095;-72
2021/01/03 08:11:39;;;;;;;34.05;19.33;;;-0.20;99.90;;;;;;5054983;28;20036;-74
2021/01/03 08:14:20;;;;;;;33.28;19.42;;;-0.20;99.90;;;;;;5086345;28;20032;-72
2021/01/03 08:16:46;;;;;;;32.90;19.38;;;-0.20;99.90;;;;;;5045390;28;20052;-76
2021/01/03 08:19:11;;;;;;;33.88;20.63;;;-0.10;99.90;;;;;;5094539;28;20366;-73
2021/01/03 08:21:40;;;;;;;33.25;20.00;;;-0.10;99.90;;;;;;5092312;28;20066;-71
2021/01/03 08:24:11;;;;;;;32.17;19.88;;;-0.10;99.90;;;;;;5092475;28;20062;-72
2021/01/03 08:26:45;;;;;;;33.35;19.48;;;-0.10;99.90;;;;;;5092181;28;20032;-71
2021/01/03 08:29:32;;;;;;;33.85;19.67;;;-0.10;99.90;;;;;;5093150;28;20097;-73
2021/01/03 08:32:04;;;;;;;35.17;20.20;;;0.00;99.90;;;;;;5092689;28;20028;-72
2021/01/03 08:34:37;;;;;;;32.78;19.00;;;0.00;99.90;;;;;;5092056;28;20099;-75
2021/01/03 08:37:42;;;;;;;30.52;18.00;;;0.00;99.90;;;;;;5092453;28;20037;-74
2021/01/03 08:40:31;;;;;;;33.42;20.95;;;0.10;99.90;;;;;;5081041;28;20453;-72
2021/01/03 08:43:18;;;;;;;30.30;18.50;;;0.10;99.90;;;;;;5093520;28;20031;-81
2021/01/03 08:45:46;;;;;;;28.60;16.55;;;0.20;99.90;;;;;;5092784;28;20028;-72
2021/01/03 08:48:18;;;;;;;27.42;16.52;;;0.20;99.90;;;;;;5074436;28;20024;-71
2021/01/03 08:50:44;;;;;;;31.65;18.10;;;0.30;99.90;;;;;;5091654;28;20039;-71
2021/01/03 08:53:22;;;;;;;29.90;17.63;;;0.30;99.90;;;;;;5092394;28;20024;-74
2021/01/03 08:55:59;;;;;;;27.73;17.27;;;0.30;99.90;;;;;;5078063;28;20127;-73
2021/01/03 08:58:34;;;;;;;29.75;17.38;;;0.30;99.90;;;;;;5111892;28;20055;-73
2021/01/03 09:01:01;;;;;;;23.83;15.43;;;0.30;99.90;;;;;;5112150;28;20027;-72
2021/01/03 09:03:27;;;;;;;27.50;17.20;;;0.30;99.90;;;;;;5111348;28;20119;-71
2021/01/03 09:05:53;;;;;;;27.58;16.33;;;0.30;99.90;;;;;;5111907;28;20099;-72
2021/01/03 09:08:41;;;;;;;24.95;15.82;;;0.30;99.90;;;;;;5078764;28;20042;-72
2021/01/03 09:11:24;;;;;;;27.55;16.65;;;0.30;99.90;;;;;;5070846;28;20024;-69
2021/01/03 09:14:16;;;;;;;25.48;15.70;;;0.30;99.90;;;;;;5060888;28;20032;-72
2021/01/03 09:16:53;;;;;;;24.45;14.88;;;0.40;99.90;;;;;;5058855;28;20044;-73
2021/01/03 09:19:24;;;;;;;23.85;16.20;;;0.30;99.90;;;;;;5086290;28;20031;-76
2021/01/03 09:21:56;;;;;;;22.30;14.00;;;0.40;99.90;;;;;;5093854;28;20028;-72
2021/01/03 09:24:32;;;;;;;21.83;13.82;;;0.50;99.90;;;;;;5091092;28;20035;-72
2021/01/03 09:27:00;;;;;;;21.05;13.00;;;0.50;99.90;;;;;;5091804;28;20047;-75
2021/01/03 09:29:32;;;;;;;22.88;15.57;;;0.50;99.90;;;;;;5090914;28;20031;-73
2021/01/03 09:32:07;;;;;;;25.23;16.13;;;0.50;99.90;;;;;;5091758;28;20032;-73
2021/01/03 09:34:58;;;;;;;21.10;13.38;;;0.60;99.90;;;;;;5078447;28;20807;-74
2021/01/03 09:37:27;;;;;;;22.45;14.18;;;0.60;99.90;;;;;;5090773;28;20107;-72
2021/01/03 09:40:21;;;;;;;22.33;13.70;;;0.70;99.90;;;;;;5091406;28;20028;-71
2021/01/03 09:43:26;;;;;;;21.40;13.35;;;0.70;99.90;;;;;;5088375;28;20033;-75
2021/01/03 09:46:02;;;;;;;20.65;13.20;;;0.70;99.90;;;;;;5071697;28;20033;-73
2021/01/03 09:48:39;;;;;;;18.00;11.70;;;0.70;99.90;;;;;;5070739;28;20448;-77
2021/01/03 09:51:25;;;;;;;19.65;13.05;;;0.80;99.90;;;;;;5071558;28;20111;-75
2021/01/03 09:54:15;;;;;;;19.88;12.95;;;0.70;99.90;;;;;;5075167;28;20450;-74
2021/01/03 09:56:41;;;;;;;24.27;13.70;;;0.90;99.90;;;;;;5075395;28;20028;-72
2021/01/03 09:59:13;;;;;;;22.30;13.57;;;0.90;99.90;;;;;;5068716;28;20023;-72
2021/01/03 10:01:39;;;;;;;21.98;13.48;;;0.90;99.90;;;;;;5064910;28;20031;-72
2021/01/03 10:04:28;;;;;;;19.98;13.93;;;1.00;99.90;;;;;;5078194;28;20037;-77
2021/01/03 10:07:18;;;;;;;34.60;19.52;;;1.00;99.90;;;;;;5071454;28;20096;-78
2021/01/03 10:10:02;;;;;;;23.13;13.35;;;1.00;99.90;;;;;;5087777;28;20059;-73
2021/01/03 10:12:35;;;;;;;27.67;16.00;;;1.00;99.90;;;;;;5077389;28;20051;-77
2021/01/03 10:15:26;;;;;;;20.83;13.63;;;1.00;99.90;;;;;;5078646;28;20029;-77
2021/01/03 10:18:06;;;;;;;20.48;13.13;;;1.10;99.90;;;;;;5097280;28;20032;-75
2021/01/03 10:20:36;;;;;;;20.45;12.88;;;1.10;99.90;;;;;;5083091;28;20024;-75
2021/01/03 10:23:03;;;;;;;21.55;13.95;;;1.20;99.90;;;;;;5077146;28;20032;-74
2021/01/03 10:25:29;;;;;;;22.70;14.35;;;1.30;99.90;;;;;;5076396;28;20024;-74
2021/01/03 10:28:13;;;;;;;20.90;13.63;;;1.30;99.90;;;;;;5077592;28;20028;-76
2021/01/03 10:30:42;;;;;;;16.92;12.27;;;1.30;99.90;;;;;;5080075;28;20529;-77
2021/01/03 10:33:10;;;;;;;23.20;15.05;;;1.30;99.90;;;;;;5085875;28;20086;-73
2021/01/03 10:35:35;;;;;;;21.10;13.27;;;1.30;99.90;;;;;;5097512;28;20044;-72
2021/01/03 10:38:04;;;;;;;22.77;14.70;;;1.20;99.90;;;;;;5088474;28;20036;-80
2021/01/03 10:40:29;;;;;;;23.15;13.77;;;1.20;99.90;;;;;;5088197;28;20453;-80
2021/01/03 10:42:55;;;;;;;28.30;16.98;;;1.10;99.90;;;;;;5082116;28;20154;-84
2021/01/03 10:45:21;;;;;;;24.02;15.63;;;1.10;99.90;;;;;;5064187;28;20025;-74
2021/01/03 10:47:47;;;;;;;22.52;15.00;;;1.10;99.90;;;;;;5078118;28;20036;-80
2021/01/03 10:50:14;;;;;;;27.00;16.48;;;1.00;99.90;;;;;;5078002;28;20020;-80
2021/01/03 10:52:40;;;;;;;25.83;15.50;;;1.10;99.90;;;;;;5095292;28;20590;-81
2021/01/03 10:55:07;;;;;;;23.58;14.68;;;1.00;99.90;;;;;;5121384;28;20028;-79
2021/01/03 10:57:33;;;;;;;20.77;13.43;;;1.00;99.90;;;;;;5122944;28;20058;-73
2021/01/03 10:59:59;;;;;;;22.63;14.98;;;1.00;99.90;;;;;;5120506;28;20032;-75
2021/01/03 11:02:26;;;;;;;25.30;15.52;;;1.00;99.90;;;;;;5119915;28;20040;-75
2021/01/03 11:04:52;;;;;;;24.27;14.98;;;1.00;99.90;;;;;;5119210;28;20110;-72
2021/01/03 11:07:18;;;;;;;24.65;15.32;;;1.00;99.90;;;;;;5102938;28;20032;-74
2021/01/03 11:09:44;;;;;;;24.33;15.90;;;1.00;99.90;;;;;;5077278;28;20029;-74
2021/01/03 11:12:12;;;;;;;23.17;15.23;;;1.00;99.90;;;;;;5077816;28;20432;-73
2021/01/03 11:14:39;;;;;;;22.40;15.45;;;1.10;99.90;;;;;;5074261;28;20074;-75
2021/01/03 11:17:06;;;;;;;24.13;14.52;;;1.10;99.90;;;;;;5075460;28;20195;-74
2021/01/03 11:19:33;;;;;;;21.40;14.57;;;1.10;99.90;;;;;;5076378;28;20040;-75
2021/01/03 11:22:00;;;;;;;20.88;13.85;;;1.10;99.90;;;;;;5074425;28;20024;-77
2021/01/03 11:24:26;;;;;;;24.35;14.57;;;1.00;99.90;;;;;;5072924;28;20054;-74
2021/01/03 11:26:53;;;;;;;25.17;15.57;;;1.00;99.90;;;;;;5074139;28;20103;-73
2021/01/03 11:29:24;;;;;;;21.58;14.32;;;1.00;99.90;;;;;;5074304;28;20025;-79
2021/01/03 11:31:53;;;;;;;23.98;15.25;;;1.00;99.90;;;;;;5075020;28;20107;-74
2021/01/03 11:34:22;;;;;;;23.50;14.83;;;0.90;99.90;;;;;;5074966;28;20037;-78
2021/01/03 11:36:54;;;;;;;22.38;14.15;;;0.90;99.90;;;;;;5074896;28;20056;-78
2021/01/03 11:39:21;;;;;;;25.88;15.77;;;0.90;99.90;;;;;;5073823;28;20460;-74
2021/01/03 11:41:50;;;;;;;22.95;14.50;;;0.90;99.90;;;;;;5074222;28;20036;-78
2021/01/03 11:44:18;;;;;;;25.80;15.32;;;0.90;99.90;;;;;;5073371;28;20071;-78
2021/01/03 11:46:44;;;;;;;29.80;15.40;;;0.90;99.90;;;;;;5073480;28;20064;-73
2021/01/03 11:49:09;;;;;;;22.88;15.15;;;0.90;99.90;;;;;;5056645;28;20382;-74
2021/01/03 11:51:35;;;;;;;27.52;15.50;;;0.90;99.90;;;;;;5073227;28;20028;-75
2021/01/03 11:54:01;;;;;;;26.73;16.38;;;0.80;99.90;;;;;;5075424;28;20074;-79
2021/01/03 11:56:27;;;;;;;24.90;15.77;;;0.90;99.90;;;;;;5072937;28;20095;-74
2021/01/03 11:58:52;;;;;;;28.55;17.10;;;0.80;99.90;;;;;;5097822;28;20048;-80
2021/01/03 12:01:20;;;;;;;25.30;15.90;;;0.80;99.90;;;;;;5098053;28;20039;-81
2021/01/03 12:03:46;;;;;;;23.83;15.15;;;0.80;99.90;;;;;;5093449;28;20060;-78
2021/01/03 12:06:24;;;;;;;23.83;15.68;;;0.80;99.90;;;;;;5093895;28;20526;-81
2021/01/03 12:08:51;;;;;;;26.33;16.75;;;0.80;99.90;;;;;;5073184;28;20485;-77
2021/01/03 12:11:21;;;;;;;27.50;16.80;;;0.80;99.90;;;;;;5073646;28;20150;-79
2021/01/03 12:13:52;;;;;;;26.67;16.83;;;0.80;99.90;;;;;;5073188;28;20025;-78
2021/01/03 12:16:24;;;;;;;26.88;16.85;;;0.80;99.90;;;;;;5073477;28;20036;-78
2021/01/03 12:18:50;;;;;;;27.42;16.60;;;0.80;99.90;;;;;;5073402;28;20024;-79
2021/01/03 12:21:28;;;;;;;27.73;17.20;;;0.80;99.90;;;;;;5076583;28;20042;-83
2021/01/03 12:23:54;;;;;;;29.73;16.98;;;0.90;99.90;;;;;;5073921;28;20074;-81
2021/01/03 12:26:20;;;;;;;26.30;17.08;;;0.80;99.90;;;;;;5084024;28;20077;-76
2021/01/03 12:28:46;;;;;;;25.95;16.17;;;0.80;99.90;;;;;;5088173;28;20077;-83
2021/01/03 12:31:13;;;;;;;26.58;17.25;;;0.80;99.90;;;;;;5085537;28;20013;-81
2021/01/03 12:33:39;;;;;;;26.90;16.17;;;0.80;99.90;;;;;;5060803;28;20025;-77
2021/01/03 12:36:06;;;;;;;23.17;15.75;;;0.80;99.90;;;;;;5059319;28;20492;-79
2021/01/03 12:38:31;;;;;;;25.85;15.50;;;0.80;99.90;;;;;;5060353;28;20029;-77
2021/01/03 12:40:57;;;;;;;23.95;15.40;;;0.80;99.90;;;;;;5061563;28;20021;-73
2021/01/03 12:43:23;;;;;;;23.00;14.57;;;0.80;99.90;;;;;;5072062;28;20420;-67
2021/01/03 12:45:49;;;;;;;26.08;15.90;;;0.70;99.90;;;;;;5072002;28;20024;-71
2021/01/03 12:48:15;;;;;;;24.38;16.88;;;0.70;99.90;;;;;;5054535;28;20482;-68
2021/01/03 12:50:40;;;;;;;28.67;16.38;;;0.80;99.90;;;;;;5071560;28;20381;-69
2021/01/03 12:53:06;;;;;;;30.02;18.17;;;0.80;99.90;;;;;;5072469;28;20415;-68
2021/01/03 12:55:32;;;;;;;26.55;17.13;;;0.80;99.90;;;;;;5071411;28;20025;-67
2021/01/03 12:57:58;;;;;;;31.25;17.38;;;0.70;99.90;;;;;;5053803;28;20139;-68